sensor_id;sensor_type;location;lat;lon;timestamp;pressure;altitude;pressure_sealevel;temperature;humidity
55070;BME280;40967;52.070;8.596;2022-11-20T00:01:42;100262.44;;;-3.64;80.39
55070;BME280;40967;52.070;8.596;2022-11-20T00:04:08;100265.91;;;-3.64;80.32
55070;BME280;40967;52.070;8.596;2022-11-20T00:06:35;100258.34;;;-3.67;80.54
55070;BME280;40967;52.070;8.596;2022-11-20T00:09:00;100259.13;;;-3.66;80.40
55070;BME280;40967;52.070;8.596;2022-11-20T00:11:27;100261.59;;;-3.65;80.09
55070;BME280;40967;52.070;8.596;2022-11-20T00:13:56;100253.44;;;-3.63;80.05
55070;BME280;40967;52.070;8.596;2022-11-20T00:16:26;100243.59;;;-3.69;79.94
55070;BME280;40967;52.070;8.596;2022-11-20T00:18:53;100245.06;;;-3.67;79.97
55070;BME280;40967;52.070;8.596;2022-11-20T00:21:21;100253.63;;;-3.65;79.45
55070;BME280;40967;52.070;8.596;2022-11-20T00:23:47;100246.91;;;-3.67;79.58
55070;BME280;40967;52.070;8.596;2022-11-20T00:26:15;100238.94;;;-3.67;79.59
55070;BME280;40967;52.070;8.596;2022-11-20T00:28:42;100230.09;;;-3.74;79.13
55070;BME280;40967;52.070;8.596;2022-11-20T00:31:13;100238.31;;;-3.69;79.07
55070;BME280;40967;52.070;8.596;2022-11-20T00:33:40;100245.44;;;-3.70;79.31
55070;BME280;40967;52.070;8.596;2022-11-20T00:36:08;100242.97;;;-3.71;79.35
55070;BME280;40967;52.070;8.596;2022-11-20T00:38:34;100230.28;;;-3.76;79.26
55070;BME280;40967;52.070;8.596;2022-11-20T00:41:07;100200.22;;;-3.97;79.20
55070;BME280;40967;52.070;8.596;2022-11-20T00:43:32;100232.28;;;-3.78;79.06
55070;BME280;40967;52.070;8.596;2022-11-20T00:46:02;100225.06;;;-3.84;79.21
55070;BME280;40967;52.070;8.596;2022-11-20T00:48:28;100238.03;;;-3.74;78.96
55070;BME280;40967;52.070;8.596;2022-11-20T00:50:54;100234.56;;;-3.75;78.84
55070;BME280;40967;52.070;8.596;2022-11-20T00:53:21;100231.06;;;-3.75;78.93
55070;BME280;40967;52.070;8.596;2022-11-20T00:55:59;100228.41;;;-3.75;78.63
55070;BME280;40967;52.070;8.596;2022-11-20T00:58:29;100230.63;;;-3.79;78.37
55070;BME280;40967;52.070;8.596;2022-11-20T01:01:03;100232.81;;;-3.82;78.50
55070;BME280;40967;52.070;8.596;2022-11-20T01:03:33;100236.28;;;-3.82;78.58
55070;BME280;40967;52.070;8.596;2022-11-20T01:06:07;100227.09;;;-3.86;78.81
55070;BME280;40967;52.070;8.596;2022-11-20T01:08:34;100225.63;;;-3.88;79.20
55070;BME280;40967;52.070;8.596;2022-11-20T01:11:06;100243.78;;;-3.85;78.64
55070;BME280;40967;52.070;8.596;2022-11-20T01:13:32;100245.00;;;-3.88;78.93
55070;BME280;40967;52.070;8.596;2022-11-20T01:16:08;100234.41;;;-3.88;79.05
55070;BME280;40967;52.070;8.596;2022-11-20T01:18:34;100232.09;;;-3.91;78.73
55070;BME280;40967;52.070;8.596;2022-11-20T01:21:09;100233.03;;;-3.98;78.84
55070;BME280;40967;52.070;8.596;2022-11-20T01:23:36;100240.34;;;-4.00;79.32
55070;BME280;40967;52.070;8.596;2022-11-20T01:26:04;100232.75;;;-4.03;79.52
55070;BME280;40967;52.070;8.596;2022-11-20T01:28:30;100222.41;;;-4.13;79.26
55070;BME280;40967;52.070;8.596;2022-11-20T01:30:55;100223.53;;;-4.07;78.90
55070;BME280;40967;52.070;8.596;2022-11-20T01:33:21;100234.56;;;-4.04;78.91
55070;BME280;40967;52.070;8.596;2022-11-20T01:35:46;100210.00;;;-4.12;78.66
55070;BME280;40967;52.070;8.596;2022-11-20T01:38:12;100230.09;;;-4.03;79.22
55070;BME280;40967;52.070;8.596;2022-11-20T01:40:37;100199.47;;;-4.20;78.95
55070;BME280;40967;52.070;8.596;2022-11-20T01:46:16;100221.78;;;-4.15;79.39
55070;BME280;40967;52.070;8.596;2022-11-20T01:51:42;100206.88;;;-4.30;79.73
55070;BME280;40967;52.070;8.596;2022-11-20T01:54:14;100218.94;;;-4.28;79.67
55070;BME280;40967;52.070;8.596;2022-11-20T01:56:43;100215.00;;;-4.32;79.59
55070;BME280;40967;52.070;8.596;2022-11-20T01:59:10;100223.03;;;-4.25;79.25
55070;BME280;40967;52.070;8.596;2022-11-20T02:01:37;100220.41;;;-4.25;79.55
55070;BME280;40967;52.070;8.596;2022-11-20T02:04:04;100220.22;;;-4.24;79.52
55070;BME280;40967;52.070;8.596;2022-11-20T02:06:47;100211.47;;;-4.24;79.42
55070;BME280;40967;52.070;8.596;2022-11-20T02:09:14;100201.97;;;-4.33;79.15
55070;BME280;40967;52.070;8.596;2022-11-20T02:11:39;100171.63;;;-4.45;79.16
55070;BME280;40967;52.070;8.596;2022-11-20T02:14:05;100196.47;;;-4.32;79.50
55070;BME280;40967;52.070;8.596;2022-11-20T02:16:34;100187.78;;;-4.40;78.80
55070;BME280;40967;52.070;8.596;2022-11-20T02:19:02;100206.78;;;-4.37;79.27
55070;BME280;40967;52.070;8.596;2022-11-20T02:24:06;100204.38;;;-4.46;79.71
55070;BME280;40967;52.070;8.596;2022-11-20T02:26:38;100201.41;;;-4.43;79.40
55070;BME280;40967;52.070;8.596;2022-11-20T02:29:04;100198.94;;;-4.45;79.64
55070;BME280;40967;52.070;8.596;2022-11-20T02:31:36;100191.47;;;-4.41;79.35
55070;BME280;40967;52.070;8.596;2022-11-20T02:34:01;100192.25;;;-4.41;79.16
55070;BME280;40967;52.070;8.596;2022-11-20T02:36:28;100175.28;;;-4.46;79.08
55070;BME280;40967;52.070;8.596;2022-11-20T02:38:55;100179.84;;;-4.40;78.99
55070;BME280;40967;52.070;8.596;2022-11-20T02:41:20;100160.22;;;-4.46;78.79
55070;BME280;40967;52.070;8.596;2022-11-20T02:43:45;100171.63;;;-4.45;78.81
55070;BME280;40967;52.070;8.596;2022-11-20T02:46:11;100171.25;;;-4.42;78.73
55070;BME280;40967;52.070;8.596;2022-11-20T02:48:36;100174.94;;;-4.43;78.60
55070;BME280;40967;52.070;8.596;2022-11-20T02:51:02;100178.94;;;-4.47;78.55
55070;BME280;40967;52.070;8.596;2022-11-20T02:53:27;100184.03;;;-4.46;78.75
55070;BME280;40967;52.070;8.596;2022-11-20T02:55:53;100171.88;;;-4.55;78.33
55070;BME280;40967;52.070;8.596;2022-11-20T02:58:18;100177.56;;;-4.58;78.55
55070;BME280;40967;52.070;8.596;2022-11-20T03:00:44;100164.22;;;-4.65;78.77
55070;BME280;40967;52.070;8.596;2022-11-20T03:03:09;100159.63;;;-4.71;78.74
55070;BME280;40967;52.070;8.596;2022-11-20T03:05:34;100152.91;;;-4.73;78.74
55070;BME280;40967;52.070;8.596;2022-11-20T03:08:00;100163.41;;;-4.65;78.86
55070;BME280;40967;52.070;8.596;2022-11-20T03:10:25;100168.16;;;-4.60;78.55
55070;BME280;40967;52.070;8.596;2022-11-20T03:12:54;100154.09;;;-4.61;78.54
55070;BME280;40967;52.070;8.596;2022-11-20T03:15:22;100142.41;;;-4.67;78.67
55070;BME280;40967;52.070;8.596;2022-11-20T03:17:47;100150.81;;;-4.63;78.71
55070;BME280;40967;52.070;8.596;2022-11-20T03:20:12;100149.00;;;-4.63;78.43
55070;BME280;40967;52.070;8.596;2022-11-20T03:22:38;100150.34;;;-4.67;78.66
55070;BME280;40967;52.070;8.596;2022-11-20T03:25:03;100148.53;;;-4.66;78.48
55070;BME280;40967;52.070;8.596;2022-11-20T03:27:32;100137.03;;;-4.73;78.54
55070;BME280;40967;52.070;8.596;2022-11-20T03:29:58;100145.16;;;-4.75;78.73
55070;BME280;40967;52.070;8.596;2022-11-20T03:32:23;100157.00;;;-4.71;78.52
55070;BME280;40967;52.070;8.596;2022-11-20T03:34:49;100154.06;;;-4.76;78.87
55070;BME280;40967;52.070;8.596;2022-11-20T03:37:14;100152.16;;;-4.82;79.66
55070;BME280;40967;52.070;8.596;2022-11-20T03:39:39;100149.69;;;-4.83;79.70
55070;BME280;40967;52.070;8.596;2022-11-20T03:42:05;100142.56;;;-4.83;79.75
55070;BME280;40967;52.070;8.596;2022-11-20T03:44:50;100121.84;;;-4.94;79.70
55070;BME280;40967;52.070;8.596;2022-11-20T03:47:15;100133.34;;;-4.87;79.55
55070;BME280;40967;52.070;8.596;2022-11-20T03:49:41;100143.38;;;-4.82;79.56
55070;BME280;40967;52.070;8.596;2022-11-20T03:52:06;100125.84;;;-4.98;80.08
55070;BME280;40967;52.070;8.596;2022-11-20T03:54:31;100138.53;;;-4.93;80.13
55070;BME280;40967;52.070;8.596;2022-11-20T03:56:57;100139.91;;;-4.97;80.55
55070;BME280;40967;52.070;8.596;2022-11-20T03:59:22;100128.69;;;-4.99;80.65
55070;BME280;40967;52.070;8.596;2022-11-20T04:01:47;100132.16;;;-4.99;80.40
55070;BME280;40967;52.070;8.596;2022-11-20T04:04:13;100134.63;;;-4.97;80.47
55070;BME280;40967;52.070;8.596;2022-11-20T04:06:38;100135.13;;;-5.02;80.52
55070;BME280;40967;52.070;8.596;2022-11-20T04:09:05;100136.97;;;-5.02;80.22
55070;BME280;40967;52.070;8.596;2022-11-20T04:11:32;100146.34;;;-5.00;80.48
55070;BME280;40967;52.070;8.596;2022-11-20T04:14:00;100149.56;;;-5.04;80.48
55070;BME280;40967;52.070;8.596;2022-11-20T04:16:29;100152.72;;;-5.09;80.84
55070;BME280;40967;52.070;8.596;2022-11-20T04:18:56;100149.28;;;-5.09;80.74
55070;BME280;40967;52.070;8.596;2022-11-20T04:21:23;100146.44;;;-5.08;81.04
55070;BME280;40967;52.070;8.596;2022-11-20T04:23:49;100143.44;;;-5.05;80.85
55070;BME280;40967;52.070;8.596;2022-11-20T04:26:15;100142.97;;;-5.08;80.90
55070;BME280;40967;52.070;8.596;2022-11-20T04:28:40;100142.50;;;-5.12;81.09
55070;BME280;40967;52.070;8.596;2022-11-20T04:31:11;100151.09;;;-5.10;81.00
55070;BME280;40967;52.070;8.596;2022-11-20T04:33:37;100143.78;;;-5.08;81.05
55070;BME280;40967;52.070;8.596;2022-11-20T04:36:05;100137.69;;;-5.08;80.81
55070;BME280;40967;52.070;8.596;2022-11-20T04:38:31;100142.97;;;-5.08;81.29
55070;BME280;40967;52.070;8.596;2022-11-20T04:41:01;100141.50;;;-5.11;80.97
55070;BME280;40967;52.070;8.596;2022-11-20T04:43:27;100134.75;;;-5.13;80.99
55070;BME280;40967;52.070;8.596;2022-11-20T04:45:53;100133.56;;;-5.11;81.15
55070;BME280;40967;52.070;8.596;2022-11-20T04:48:19;100135.88;;;-5.08;81.03
55070;BME280;40967;52.070;8.596;2022-11-20T04:50:44;100128.72;;;-5.07;81.01
55070;BME280;40967;52.070;8.596;2022-11-20T04:53:09;100121.53;;;-5.13;80.77
55070;BME280;40967;52.070;8.596;2022-11-20T04:55:35;100120.03;;;-5.16;81.14
55070;BME280;40967;52.070;8.596;2022-11-20T04:58:00;100132.38;;;-5.08;80.87
55070;BME280;40967;52.070;8.596;2022-11-20T05:00:25;100131.28;;;-5.14;81.07
55070;BME280;40967;52.070;8.596;2022-11-20T05:02:51;100131.09;;;-5.12;80.96
55070;BME280;40967;52.070;8.596;2022-11-20T05:05:16;100117.47;;;-5.24;81.11
55070;BME280;40967;52.070;8.596;2022-11-20T05:07:41;100141.06;;;-5.14;81.13
55070;BME280;40967;52.070;8.596;2022-11-20T05:10:07;100132.47;;;-5.16;81.40
55070;BME280;40967;52.070;8.596;2022-11-20T05:12:33;100130.00;;;-5.18;81.50
55070;BME280;40967;52.070;8.596;2022-11-20T05:14:58;100128.16;;;-5.17;81.42
55070;BME280;40967;52.070;8.596;2022-11-20T05:17:23;100135.91;;;-5.16;81.28
55070;BME280;40967;52.070;8.596;2022-11-20T05:19:49;100139.94;;;-5.20;81.13
55070;BME280;40967;52.070;8.596;2022-11-20T05:22:14;100144.09;;;-5.25;81.58
55070;BME280;40967;52.070;8.596;2022-11-20T05:24:39;100126.00;;;-5.36;81.54
55070;BME280;40967;52.070;8.596;2022-11-20T05:27:05;100136.41;;;-5.35;81.52
55070;BME280;40967;52.070;8.596;2022-11-20T05:29:30;100137.88;;;-5.32;81.68
55070;BME280;40967;52.070;8.596;2022-11-20T05:31:55;100133.94;;;-5.36;81.61
55070;BME280;40967;52.070;8.596;2022-11-20T05:34:21;100104.00;;;-5.51;81.43
55070;BME280;40967;52.070;8.596;2022-11-20T05:36:46;100136.06;;;-5.32;81.15
55070;BME280;40967;52.070;8.596;2022-11-20T05:39:11;100132.59;;;-5.32;80.93
55070;BME280;40967;52.070;8.596;2022-11-20T05:41:37;100132.22;;;-5.29;81.30
55070;BME280;40967;52.070;8.596;2022-11-20T05:44:02;100122.31;;;-5.27;80.43
55070;BME280;40967;52.070;8.596;2022-11-20T05:46:28;100125.59;;;-5.25;80.85
55070;BME280;40967;52.070;8.596;2022-11-20T05:48:53;100116.84;;;-5.26;80.35
55070;BME280;40967;52.070;8.596;2022-11-20T05:51:19;100121.94;;;-5.24;80.07
55070;BME280;40967;52.070;8.596;2022-11-20T05:53:45;100118.66;;;-5.26;80.37
55070;BME280;40967;52.070;8.596;2022-11-20T05:56:13;100105.31;;;-5.33;80.26
55070;BME280;40967;52.070;8.596;2022-11-20T05:58:39;100111.91;;;-5.29;80.25
55070;BME280;40967;52.070;8.596;2022-11-20T06:01:07;100107.78;;;-5.31;80.34
55070;BME280;40967;52.070;8.596;2022-11-20T06:03:33;100090.19;;;-5.39;80.22
55070;BME280;40967;52.070;8.596;2022-11-20T06:06:00;100103.31;;;-5.31;80.04
55070;BME280;40967;52.070;8.596;2022-11-20T06:08:26;100110.25;;;-5.30;79.70
55070;BME280;40967;52.070;8.596;2022-11-20T06:10:51;100110.44;;;-5.31;80.08
55070;BME280;40967;52.070;8.596;2022-11-20T06:13:16;100112.00;;;-5.37;79.80
55070;BME280;40967;52.070;8.596;2022-11-20T06:15:42;100114.66;;;-5.45;80.39
55070;BME280;40967;52.070;8.596;2022-11-20T06:18:07;100109.34;;;-5.59;80.35
55070;BME280;40967;52.070;8.596;2022-11-20T06:20:33;100115.72;;;-5.54;80.87
55070;BME280;40967;52.070;8.596;2022-11-20T06:22:58;100127.31;;;-5.55;80.59
55070;BME280;40967;52.070;8.596;2022-11-20T06:25:23;100120.06;;;-5.61;80.79
55070;BME280;40967;52.070;8.596;2022-11-20T06:27:49;100121.44;;;-5.65;80.93
55070;BME280;40967;52.070;8.596;2022-11-20T06:30:14;100107.56;;;-5.67;81.28
55070;BME280;40967;52.070;8.596;2022-11-20T06:32:40;100114.03;;;-5.69;81.06
55070;BME280;40967;52.070;8.596;2022-11-20T06:35:05;100119.78;;;-5.66;81.06
55070;BME280;40967;52.070;8.596;2022-11-20T06:37:31;100118.16;;;-5.67;81.30
55070;BME280;40967;52.070;8.596;2022-11-20T06:39:56;100095.69;;;-5.86;80.90
55070;BME280;40967;52.070;8.596;2022-11-20T06:42:22;100113.06;;;-5.77;81.21
55070;BME280;40967;52.070;8.596;2022-11-20T06:44:47;100097.75;;;-5.81;81.34
55070;BME280;40967;52.070;8.596;2022-11-20T06:47:12;100095.13;;;-5.81;81.96
55070;BME280;40967;52.070;8.596;2022-11-20T06:49:38;100087.28;;;-5.89;81.80
55070;BME280;40967;52.070;8.596;2022-11-20T06:52:04;100098.78;;;-5.82;81.65
55070;BME280;40967;52.070;8.596;2022-11-20T06:54:29;100105.97;;;-5.76;81.71
55070;BME280;40967;52.070;8.596;2022-11-20T06:56:54;100096.59;;;-5.78;81.27
55070;BME280;40967;52.070;8.596;2022-11-20T06:59:20;100097.75;;;-5.81;81.25
55070;BME280;40967;52.070;8.596;2022-11-20T07:01:45;100119.19;;;-5.76;81.23
55070;BME280;40967;52.070;8.596;2022-11-20T07:04:10;100127.94;;;-5.75;81.46
55070;BME280;40967;52.070;8.596;2022-11-20T07:06:36;100104.59;;;-5.87;81.46
55070;BME280;40967;52.070;8.596;2022-11-20T07:09:01;100114.91;;;-5.77;81.29
55070;BME280;40967;52.070;8.596;2022-11-20T07:11:27;100109.50;;;-5.84;81.35
55070;BME280;40967;52.070;8.596;2022-11-20T07:13:52;100104.06;;;-5.82;81.75
55070;BME280;40967;52.070;8.596;2022-11-20T07:16:17;100114.19;;;-5.71;81.26
55070;BME280;40967;52.070;8.596;2022-11-20T07:18:43;100122.13;;;-5.71;81.36
55070;BME280;40967;52.070;8.596;2022-11-20T07:21:10;100133.81;;;-5.65;81.48
55070;BME280;40967;52.070;8.596;2022-11-20T07:23:36;100137.94;;;-5.63;81.67
55070;BME280;40967;52.070;8.596;2022-11-20T07:26:09;100136.75;;;-5.60;81.31
55070;BME280;40967;52.070;8.596;2022-11-20T07:28:35;100135.78;;;-5.59;81.95
55070;BME280;40967;52.070;8.596;2022-11-20T07:31:01;100117.44;;;-5.61;81.92
55070;BME280;40967;52.070;8.596;2022-11-20T07:33:27;100137.34;;;-5.50;82.67
55070;BME280;40967;52.070;8.596;2022-11-20T07:35:53;100134.19;;;-5.46;83.04
55070;BME280;40967;52.070;8.596;2022-11-20T07:38:18;100136.41;;;-5.35;83.55
55070;BME280;40967;52.070;8.596;2022-11-20T07:40:44;100131.41;;;-5.30;84.04
55070;BME280;40967;52.070;8.596;2022-11-20T07:43:09;100126.44;;;-5.25;84.65
55070;BME280;40967;52.070;8.596;2022-11-20T07:45:35;100102.31;;;-5.30;85.04
55070;BME280;40967;52.070;8.596;2022-11-20T07:48:00;100140.97;;;-5.06;85.35
55070;BME280;40967;52.070;8.596;2022-11-20T07:50:25;100134.78;;;-4.99;85.55
55070;BME280;40967;52.070;8.596;2022-11-20T07:52:51;100138.34;;;-4.92;85.24
55070;BME280;40967;52.070;8.596;2022-11-20T07:55:17;100127.13;;;-4.94;85.53
55070;BME280;40967;52.070;8.596;2022-11-20T07:57:42;100127.22;;;-4.87;85.70
55070;BME280;40967;52.070;8.596;2022-11-20T08:00:09;100133.91;;;-4.77;85.92
55070;BME280;40967;52.070;8.596;2022-11-20T08:02:39;100132.84;;;-4.68;85.68
55070;BME280;40967;52.070;8.596;2022-11-20T08:05:05;100118.22;;;-4.64;86.05
55070;BME280;40967;52.070;8.596;2022-11-20T08:07:38;100117.03;;;-4.61;86.41
55070;BME280;40967;52.070;8.596;2022-11-20T08:10:04;100116.22;;;-4.62;86.86
55070;BME280;40967;52.070;8.596;2022-11-20T08:12:29;100082.28;;;-4.73;87.70
55070;BME280;40967;52.070;8.596;2022-11-20T08:15:13;100113.75;;;-4.48;87.51
55070;BME280;40967;52.070;8.596;2022-11-20T08:17:39;100104.09;;;-4.41;87.80
55070;BME280;40967;52.070;8.596;2022-11-20T08:20:04;100108.91;;;-4.30;88.10
55070;BME280;40967;52.070;8.596;2022-11-20T08:22:30;100101.03;;;-4.24;88.17
55070;BME280;40967;52.070;8.596;2022-11-20T08:24:55;100090.88;;;-4.20;88.76
55070;BME280;40967;52.070;8.596;2022-11-20T08:27:21;100095.16;;;-4.05;89.81
55070;BME280;40967;52.070;8.596;2022-11-20T08:29:46;100091.28;;;-3.88;90.88
55070;BME280;40967;52.070;8.596;2022-11-20T08:32:11;100086.81;;;-3.66;91.98
55070;BME280;40967;52.070;8.596;2022-11-20T08:34:37;100094.19;;;-3.40;92.82
55070;BME280;40967;52.070;8.596;2022-11-20T08:37:02;100100.56;;;-3.14;93.89
55070;BME280;40967;52.070;8.596;2022-11-20T08:39:28;100098.31;;;-2.89;93.96
55070;BME280;40967;52.070;8.596;2022-11-20T08:41:53;100098.28;;;-2.62;94.74
55070;BME280;40967;52.070;8.596;2022-11-20T08:44:18;100087.59;;;-2.41;95.78
55070;BME280;40967;52.070;8.596;2022-11-20T08:46:44;100099.41;;;-2.09;96.05
55070;BME280;40967;52.070;8.596;2022-11-20T08:49:12;100092.53;;;-1.84;96.71
55070;BME280;40967;52.070;8.596;2022-11-20T08:51:38;100100.78;;;-1.59;96.82
55070;BME280;40967;52.070;8.596;2022-11-20T08:54:04;100111.47;;;-1.33;96.44
55070;BME280;40967;52.070;8.596;2022-11-20T08:56:30;100114.97;;;-1.13;96.10
55070;BME280;40967;52.070;8.596;2022-11-20T08:58:56;100103.91;;;-0.97;95.76
55070;BME280;40967;52.070;8.596;2022-11-20T09:01:22;100112.53;;;-0.82;95.16
55070;BME280;40967;52.070;8.596;2022-11-20T09:03:48;100104.50;;;-0.62;95.26
55070;BME280;40967;52.070;8.596;2022-11-20T09:06:14;100104.91;;;-0.52;94.89
55070;BME280;40967;52.070;8.596;2022-11-20T09:08:39;100105.09;;;-0.47;94.13
55070;BME280;40967;52.070;8.596;2022-11-20T09:11:05;100115.31;;;-0.38;93.41
55070;BME280;40967;52.070;8.596;2022-11-20T09:13:32;100111.22;;;-0.34;93.52
55070;BME280;40967;52.070;8.596;2022-11-20T09:16:03;100112.84;;;-0.26;93.51
55070;BME280;40967;52.070;8.596;2022-11-20T09:18:30;100110.38;;;-0.21;92.67
55070;BME280;40967;52.070;8.596;2022-11-20T09:20:59;100105.44;;;-0.24;91.65
55070;BME280;40967;52.070;8.596;2022-11-20T09:23:25;100109.94;;;-0.18;91.19
55070;BME280;40967;52.070;8.596;2022-11-20T09:25:51;100101.97;;;-0.25;90.32
55070;BME280;40967;52.070;8.596;2022-11-20T09:28:17;100109.53;;;-0.22;90.22
55070;BME280;40967;52.070;8.596;2022-11-20T09:30:44;100060.41;;;-0.45;90.21
55070;BME280;40967;52.070;8.596;2022-11-20T09:33:09;100107.28;;;-0.25;90.04
55070;BME280;40967;52.070;8.596;2022-11-20T09:35:34;100103.78;;;-0.19;89.81
55070;BME280;40967;52.070;8.596;2022-11-20T09:38:05;100107.88;;;-0.16;89.53
55070;BME280;40967;52.070;8.596;2022-11-20T09:40:30;100109.69;;;-0.10;89.70
55070;BME280;40967;52.070;8.596;2022-11-20T09:43:12;100105.81;;;-0.08;89.12
55070;BME280;40967;52.070;8.596;2022-11-20T09:51:20;100097.34;;;0.02;88.91
55070;BME280;40967;52.070;8.596;2022-11-20T09:56:20;100079.50;;;0.03;88.40
55070;BME280;40967;52.070;8.596;2022-11-20T09:58:51;100083.38;;;0.07;88.34
55070;BME280;40967;52.070;8.596;2022-11-20T10:01:21;100059.22;;;-0.05;88.08
55070;BME280;40967;52.070;8.596;2022-11-20T10:09:34;100060.47;;;-0.08;88.37
55070;BME280;40967;52.070;8.596;2022-11-20T10:20:29;100040.53;;;0.02;88.21
55070;BME280;40967;52.070;8.596;2022-11-20T10:23:47;100041.34;;;0.02;88.14
55070;BME280;40967;52.070;8.596;2022-11-20T10:26:20;100031.88;;;0.06;88.47
55070;BME280;40967;52.070;8.596;2022-11-20T10:29:11;100041.75;;;0.37;89.14
55070;BME280;40967;52.070;8.596;2022-11-20T10:31:40;100034.81;;;0.60;88.82
55070;BME280;40967;52.070;8.596;2022-11-20T10:36:55;100024.31;;;1.08;89.22
55070;BME280;40967;52.070;8.596;2022-11-20T10:39:27;100028.50;;;1.22;88.45
55070;BME280;40967;52.070;8.596;2022-11-20T10:41:56;100025.03;;;1.22;87.53
55070;BME280;40967;52.070;8.596;2022-11-20T10:44:28;100024.09;;;1.52;88.77
55070;BME280;40967;52.070;8.596;2022-11-20T10:47:15;100021.38;;;1.88;88.67
55070;BME280;40967;52.070;8.596;2022-11-20T10:49:42;100009.00;;;2.05;87.68
55070;BME280;40967;52.070;8.596;2022-11-20T10:58:01;100001.31;;;3.14;84.87
55070;BME280;40967;52.070;8.596;2022-11-20T11:00:32;100002.22;;;3.31;82.95
55070;BME280;40967;52.070;8.596;2022-11-20T11:02:57;99999.72;;;3.53;81.97
55070;BME280;40967;52.070;8.596;2022-11-20T11:05:48;100007.03;;;3.69;80.33
55070;BME280;40967;52.070;8.596;2022-11-20T11:08:18;100009.09;;;3.90;79.66
55070;BME280;40967;52.070;8.596;2022-11-20T11:10:54;100000.44;;;3.88;77.36
55070;BME280;40967;52.070;8.596;2022-11-20T11:13:22;100005.78;;;3.72;75.38
55070;BME280;40967;52.070;8.596;2022-11-20T11:15:47;99996.69;;;3.61;75.05
55070;BME280;40967;52.070;8.596;2022-11-20T11:18:33;99995.38;;;3.64;74.12
55070;BME280;40967;52.070;8.596;2022-11-20T11:21:03;99993.25;;;3.77;74.37
55070;BME280;40967;52.070;8.596;2022-11-20T11:23:38;99983.34;;;3.78;72.83
55070;BME280;40967;52.070;8.596;2022-11-20T11:26:06;99985.28;;;3.94;72.63
55070;BME280;40967;52.070;8.596;2022-11-20T11:28:33;99973.91;;;4.03;71.88
55070;BME280;40967;52.070;8.596;2022-11-20T11:30:58;99986.06;;;4.22;71.97
55070;BME280;40967;52.070;8.596;2022-11-20T11:33:29;99992.31;;;4.39;71.55
55070;BME280;40967;52.070;8.596;2022-11-20T11:35:58;99982.50;;;4.33;70.82
55070;BME280;40967;52.070;8.596;2022-11-20T11:38:41;99980.75;;;4.55;70.79
55070;BME280;40967;52.070;8.596;2022-11-20T11:41:20;99962.84;;;4.44;68.55
55070;BME280;40967;52.070;8.596;2022-11-20T11:43:53;99972.59;;;4.34;68.44
55070;BME280;40967;52.070;8.596;2022-11-20T11:46:39;99971.75;;;4.17;67.78
55070;BME280;40967;52.070;8.596;2022-11-20T11:51:40;99944.34;;;3.87;68.79
55070;BME280;40967;52.070;8.596;2022-11-20T11:54:20;99966.50;;;4.10;68.90
55070;BME280;40967;52.070;8.596;2022-11-20T11:56:48;99958.00;;;4.30;68.69
55070;BME280;40967;52.070;8.596;2022-11-20T11:59:43;99961.69;;;4.40;68.22
55070;BME280;40967;52.070;8.596;2022-11-20T12:02:37;99947.63;;;4.50;67.95
55070;BME280;40967;52.070;8.596;2022-11-20T12:07:56;99948.19;;;4.52;66.96
55070;BME280;40967;52.070;8.596;2022-11-20T12:13:01;99951.44;;;4.71;66.75
55070;BME280;40967;52.070;8.596;2022-11-20T12:15:33;99942.09;;;4.56;65.96
55070;BME280;40967;52.070;8.596;2022-11-20T12:17:59;99943.63;;;4.52;66.40
55070;BME280;40967;52.070;8.596;2022-11-20T12:20:33;99947.50;;;4.78;66.49
55070;BME280;40967;52.070;8.596;2022-11-20T12:25:35;99940.94;;;4.86;65.23
55070;BME280;40967;52.070;8.596;2022-11-20T12:30:38;99922.94;;;4.86;64.60
55070;BME280;40967;52.070;8.596;2022-11-20T12:50:35;99914.97;;;4.25;65.81
55070;BME280;40967;52.070;8.596;2022-11-20T13:06:46;99909.69;;;4.46;65.44
55070;BME280;40967;52.070;8.596;2022-11-20T13:09:15;99916.53;;;4.37;65.79
55070;BME280;40967;52.070;8.596;2022-11-20T13:12:08;99904.22;;;4.41;66.23
55070;BME280;40967;52.070;8.596;2022-11-20T13:14:45;99894.63;;;4.45;66.01
55070;BME280;40967;52.070;8.596;2022-11-20T13:17:31;99896.81;;;4.48;65.94
55070;BME280;40967;52.070;8.596;2022-11-20T13:20:00;99877.59;;;4.40;65.73
55070;BME280;40967;52.070;8.596;2022-11-20T13:22:28;99885.53;;;4.46;65.40
55070;BME280;40967;52.070;8.596;2022-11-20T13:24:54;99883.06;;;4.45;65.18
55070;BME280;40967;52.070;8.596;2022-11-20T13:27:21;99880.69;;;4.48;65.45
55070;BME280;40967;52.070;8.596;2022-11-20T13:30:14;99876.47;;;4.52;65.81
55070;BME280;40967;52.070;8.596;2022-11-20T13:33:07;99873.13;;;4.45;65.45
55070;BME280;40967;52.070;8.596;2022-11-20T13:35:36;99870.06;;;4.37;65.41
55070;BME280;40967;52.070;8.596;2022-11-20T13:38:10;99866.63;;;4.25;66.09
55070;BME280;40967;52.070;8.596;2022-11-20T13:40:59;99862.47;;;4.17;66.41
55070;BME280;40967;52.070;8.596;2022-11-20T13:43:40;99867.28;;;4.15;67.05
55070;BME280;40967;52.070;8.596;2022-11-20T13:46:09;99852.22;;;4.14;66.80
55070;BME280;40967;52.070;8.596;2022-11-20T13:48:43;99843.69;;;4.17;67.27
55070;BME280;40967;52.070;8.596;2022-11-20T13:51:31;99837.19;;;4.30;67.29
55070;BME280;40967;52.070;8.596;2022-11-20T13:54:30;99839.38;;;4.49;67.42
55070;BME280;40967;52.070;8.596;2022-11-20T14:00:21;99815.13;;;4.66;65.63
55070;BME280;40967;52.070;8.596;2022-11-20T14:03:18;99825.69;;;4.73;65.33
55070;BME280;40967;52.070;8.596;2022-11-20T14:06:12;99829.31;;;4.61;65.57
55070;BME280;40967;52.070;8.596;2022-11-20T14:08:46;99813.72;;;4.58;65.52
55070;BME280;40967;52.070;8.596;2022-11-20T14:11:20;99823.88;;;4.56;64.82
55070;BME280;40967;52.070;8.596;2022-11-20T14:16:27;99797.53;;;4.37;64.88
55070;BME280;40967;52.070;8.596;2022-11-20T14:18:53;99799.41;;;4.36;64.83
55070;BME280;40967;52.070;8.596;2022-11-20T14:21:27;99805.34;;;4.38;65.19
55070;BME280;40967;52.070;8.596;2022-11-20T14:24:09;99792.09;;;4.32;65.26
55070;BME280;40967;52.070;8.596;2022-11-20T14:26:37;99801.84;;;4.38;65.28
55070;BME280;40967;52.070;8.596;2022-11-20T14:29:13;99778.16;;;4.35;65.31
55070;BME280;40967;52.070;8.596;2022-11-20T14:31:39;99791.34;;;4.36;64.80
55070;BME280;40967;52.070;8.596;2022-11-20T14:34:04;99782.41;;;4.31;65.05